Historyczne dane pomiarowe

Dodano dane terminowe – wersja testowa.

Dane z okresu 1951-2019

Wersja bazy: 1.34 [2019-03-16, lista zmian], aktualizacja planowana na 2019-04-15

Dane meteo z obszaru Polski uzyskane na podstawie danych udostępnionych przez Instytut Meteorologii i Gospodarki Wodnej – Państwowy Instytut Badawczy.

 

Wybierz Datę:    

       

TemperaturaWilgotnośćWiatrCiśnienieOpadyŚniegCzas trwania zjawisk
 Stacja t tx tn tng RH VA  wxwx mslp ppp RRR   cm mm wxwxwxwxwxwxwx
1983-08-14 12.4 17.6 7.7 4.7 82.5- 4.3 1.7---- 0.5------------
1983-08-13 14.5 21.6 11.8 11.9 81.8- 7.0 4.0---- 9.2------------
1983-08-12 19.4 26.3 12.4 8.8 67.3- 3.0 0.7---- 4.7------------
1983-08-11 20.2 26.5 16.0 12.2 67.0- 3.0 1.3---- 0.0------------
1983-08-10 19.3 25.2 11.9 9.0 74.8- 2.7 2.7---- 0.3------------
1983-08-09 17.6 25.5 12.1 9.4 87.5- 7.0 1.3---- 5.1------------
1983-08-08 16.6 21.1 12.4 9.8 91.8- 8.0 1.7---- 0.2------------
1983-08-07 15.0 19.1 13.1 10.6 90.5- 8.0 1.0---- 4.2------------
1983-08-06 14.7 18.0 8.4 4.7 77.5- 6.0 1.7---- 1.5------------
1983-08-05 12.3 16.5 7.7 4.2 82.5- 6.0 2.0---- 0.0------------
1983-08-04 10.5 14.5 10.1 10.6 95.8- 8.0 3.0---- 1.5------------
1983-08-03 17.1 22.0 14.2 15.7 88.3- 7.0 3.0---- 1.1------------
1983-08-02 19.6 25.4 17.2 13.4 78.0- 7.0 2.3---- 6.1------------
1983-08-01 22.1 31.5 12.6 7.8 51.5- 0.0 2.7---- 0.0------------
1983-07-31 18.4 25.5 8.4 4.4 56.5- 0.0 1.3---- 0.0------------
1983-07-30 18.3 23.7 15.4 15.3 73.3- 4.0 4.7---- 0.0------------
1983-07-29 19.4 24.2 15.0 11.3 62.8- 5.0 2.3---- 3.4------------
1983-07-28 23.2 27.7 20.6 16.2 57.8- 5.3 4.0---- 0.1------------
1983-07-27 23.1 33.0 12.7 8.9 58.8- 1.7 1.3---- 0.0------------
1983-07-26 20.8 28.2 10.4 7.1 60.8- 0.0 1.0---- 0.0------------
1983-07-25 15.8 21.8 8.8 6.9 74.8- 4.7 1.7---- 0.0------------
1983-07-24 16.5 21.4 9.9 6.3 75.3- 7.3 2.0---- 0.1------------
1983-07-23 17.5 23.0 11.6 8.3 70.5- 4.7 4.0---- 0.0------------
1983-07-22 11.9 14.8 8.4 5.2 83.5- 8.0 3.7---- 0.5------------
1983-07-21 13.2 17.0 9.1 9.8 65.5- 3.0 4.7---- 0.0------------
1983-07-20 15.2 24.6 11.5 13.4 85.5- 8.0 3.7---- 7.7------------
1983-07-19 23.0 28.5 17.5 13.9 60.3- 2.7 4.0---- 10.0------------
1983-07-18 23.4 32.0 14.1 10.4 58.5- 0.3 2.0---- 0.0------------
1983-07-17 20.3 26.5 14.6 11.3 74.8- 3.0 2.0---- 0.0------------
1983-07-16 20.3 28.0 12.7 9.0 71.3- 5.0 1.0---- 3.5------------
1983-07-15 19.3 25.0 12.4 9.3 70.3- 1.0 0.7---- 0.0------------
1983-07-14 18.8 22.6 15.9 14.8 84.5- 5.3 4.3---- 0.1------------
1983-07-13 19.6 26.0 15.5 13.8 79.0- 6.0 2.3---- 7.8------------
1983-07-12 18.4 24.0 17.1 15.3 86.3- 6.3 1.0---- 15.6------------
1983-07-11 18.5 26.2 16.4 13.3 79.5- 6.7 2.0---- 2.2------------
1983-07-10 22.7 28.7 15.0 11.4 54.3- 2.7 2.3---- 0.0------------
1983-07-09 21.7 27.6 12.6 8.6 52.8- 2.7 1.7---- 0.0------------
1983-07-08 21.3 28.0 12.9 9.8 50.0- 0.0 2.3---- 0.0------------
1983-07-07 22.6 29.0 15.1 11.8 61.0- 1.0 1.7---- 0.0------------
1983-07-06 21.7 28.5 13.2 10.4 62.5- 0.3 1.7---- 0.0------------
1983-07-05 19.7 25.7 13.2 11.6 65.8- 1.7 3.0---- 0.0------------
1983-07-04 20.8 26.5 13.0 8.8 56.0- 2.3 2.0---- 0.0------------
1983-07-03 19.5 24.5 13.8 10.5 60.3- 2.7 0.3---- 0.0------------
1983-07-02 18.8 23.1 15.5 15.7 73.5- 4.0 2.3---- 0.0------------
1983-07-01 19.7 26.5 11.6 7.8 64.0- 4.3 1.0---- 0.0------------
1983-06-30 16.6 23.3 8.3 5.2 64.0- 0.7 2.0---- 0.0------------
1983-06-29 13.7 19.0 7.5 5.1 68.3- 1.7 1.7---- 0.0------------
1983-06-28 16.0 21.0 14.0 14.4 77.8- 7.3 3.7---- 0.1------------
1983-06-27 20.2 26.1 16.0 12.5 76.3- 4.3 1.7---- 21.7------------
1983-06-26 20.1 25.5 15.5 14.1 72.3- 4.7 1.0---- 0.0------------
1983-06-25 21.0 28.0 13.0 8.2 61.8- 2.7 4.3---- 3.4------------
1983-06-24 18.5 26.5 8.2 2.7 55.0- 0.0 1.3---- 0.0------------
1983-06-23 15.2 20.8 6.2 2.7 57.5- 0.0 3.3---- 0.0------------
1983-06-22 15.7 21.1 11.2 10.4 60.3- 0.0 5.0---- 0.0------------
1983-06-21 19.1 24.7 11.9 8.4 64.3- 1.0 2.0---- 0.0------------
1983-06-20 17.8 21.4 14.9 14.1 84.3- 6.0 2.3---- 0.0------------
1983-06-19 13.7 16.9 11.7 11.8 95.3- 8.0 3.7---- 0.2------------
1983-06-18 11.6 13.5 8.9 9.0 89.8- 8.0 2.7---- 1.4------------
1983-06-17 11.6 14.5 8.8 8.7 77.8- 7.7 4.3---- 1.9------------
1983-06-16 11.8 14.9 8.7 8.9 78.8- 8.0 3.7---- 0.0------------
370.8 ms

 

Źródłem pochodzenia danych jest Instytut Meteorologii i Gospodarki Wodnej – Państwowy Instytut Badawczy. Dane Instytutu Meteorologii i Gospodarki Wodnej – Państwowego Instytutu Badawczego zostały przetworzone.

Dane źródłowe można odnaleźć na stronie https://dane.imgw.pl